Time;durP1;ratioP1;P1;durP2;ratioP2;P2;SDS_P1;SDS_P2;PMS_P1;PMS_P2;Temp;Humidity;BMP_temperature;BMP_pressure;BME280_temperature;BME280_humidity;BME280_pressure;Samples;Min_cycle;Max_cycle;Signal;HPM_P1;HPM_P2
2022/03/06 00:00:22;;;;;;;;;;;;;;;;;;1031630;28;875;-38
2022/03/06 00:00:52;;;;;;;;;;;;;;;;;;1031427;28;855;-37
2022/03/06 00:01:23;;;;;;;;;;;;;;;;;;1031621;28;974;-37
2022/03/06 00:01:53;;;;;;;;;;;;;;;;;;1031394;28;914;-37
2022/03/06 00:02:24;;;;;;;;;;;;;;;;;;1031540;28;891;-38
2022/03/06 00:02:54;;;;;;;;;;;;;;;;;;1031449;28;816;-38
2022/03/06 00:03:24;;;;;;;;;;;;;;;;;;1031017;28;997;-38
2022/03/06 00:03:55;;;;;;;;;;;;;;;;;;1031438;28;914;-38
2022/03/06 00:04:25;;;;;;;;;;;;;;;;;;1034712;28;1142;-36
2022/03/06 00:04:56;;;;;;;;;;;;;;;;;;1035450;28;933;-38
2022/03/06 00:05:26;;;;;;;;;;;;;;;;;;1035694;28;945;-38
2022/03/06 00:05:57;;;;;;;;;;;;;;;;;;1035415;28;968;-37
2022/03/06 00:06:27;;;;;;;;;;;;;;;;;;1035747;28;993;-38
2022/03/06 00:06:57;;;;;;;;;;;;;;;;;;1035441;28;934;-37
2022/03/06 00:07:28;;;;;;;;;;;;;;;;;;1035535;28;1613;-37
2022/03/06 00:07:59;;;;;;;;;;;;;;;;;;1035460;28;842;-38
2022/03/06 00:08:29;;;;;;;;;;;;;;;;;;1035567;28;954;-38
2022/03/06 00:09:00;;;;;;;;;;;;;;;;;;1035471;28;993;-38
2022/03/06 00:09:30;;;;;;;;;;;;;;;;;;1035658;28;1728;-37
2022/03/06 00:10:01;;;;;;;;;;;;;;;;;;1035429;28;997;-38
2022/03/06 00:10:31;;;;;;;;;;;;;;;;;;1035605;28;886;-39
2022/03/06 00:11:02;;;;;;;;;;;;;;;;;;1034804;28;934;-38
2022/03/06 00:11:32;;;;;;;;;;;;;;;;;;1035572;28;902;-37
2022/03/06 00:12:03;;;;;;;;;;;;;;;;;;1035684;28;779;-36
2022/03/06 00:12:33;;;;;;;;;;;;;;;;;;1035403;28;926;-38
2022/03/06 00:13:04;;;;;;;;;;;;;;;;;;1035585;28;904;-38
2022/03/06 00:13:35;;;;;;;;;;;;;;;;;;1035508;28;981;-38
2022/03/06 00:14:05;;;;;;;;;;;;;;;;;;1035432;28;1028;-37
2022/03/06 00:14:35;;;;;;;;;;;;;;;;;;1035546;28;887;-38
2022/03/06 00:15:06;;;;;;;;;;;;;;;;;;1035424;28;895;-38
2022/03/06 00:15:36;;;;;;;;;;;;;;;;;;1035465;28;1914;-37
2022/03/06 00:16:07;;;;;;;;;;;;;;;;;;1035628;28;882;-36
2022/03/06 00:16:37;;;;;;;;;;;;;;;;;;1035423;28;891;-38
2022/03/06 00:17:07;;;;;;;;;;;;;;;;;;1035653;28;882;-35
2022/03/06 00:17:38;;;;;;;;;;;;;;;;;;1035284;28;1102;-37
2022/03/06 00:18:08;;;;;;;;;;;;;;;;;;1034831;28;969;-38
2022/03/06 00:18:38;;;;;;;;;;;;;;;;;;1035617;28;949;-39
2022/03/06 00:19:09;;;;;;;;;;;;;;;;;;1035363;28;970;-36
2022/03/06 00:19:39;;;;;;;;;;;;;;;;;;1035474;28;842;-38
2022/03/06 00:20:10;;;;;;;;;;;;;;;;;;1035487;28;1771;-36
2022/03/06 00:20:41;;;;;;;;;;;;;;;;;;1035404;28;1130;-38
2022/03/06 00:21:12;;;;;;;;;;;;;;;;;;1035094;28;870;-38
2022/03/06 00:21:43;;;;;;;;;;;;;;;;;;1035067;28;949;-39
2022/03/06 00:22:13;;;;;;;;;;;;;;;;;;1035109;28;879;-39
2022/03/06 00:22:44;;;;;;;;;;;;;;;;;;1035290;28;961;-38
2022/03/06 00:23:14;;;;;;;;;;;;;;;;;;1035287;28;926;-38
2022/03/06 00:23:45;;;;;;;;;;;;;;;;;;1035475;28;954;-38
2022/03/06 00:24:15;;;;;;;;;;;;;;;;;;1035477;28;858;-38
2022/03/06 00:24:46;;;;;;;;;;;;;;;;;;1035591;28;820;-38
2022/03/06 00:25:16;;;;;;;;;;;;;;;;;;1029119;28;1213;-36
2022/03/06 00:25:46;;;;;;;;;;;;;;;;;;1026402;28;903;-38
2022/03/06 00:26:17;;;;;;;;;;;;;;;;;;1027178;28;898;-36
2022/03/06 00:26:47;;;;;;;;;;;;;;;;;;1027020;28;930;-38
2022/03/06 00:27:17;;;;;;;;;;;;;;;;;;1031144;28;835;-37
2022/03/06 00:27:48;;;;;;;;;;;;;;;;;;1031010;28;839;-36
2022/03/06 00:28:18;;;;;;;;;;;;;;;;;;1031087;28;812;-39
2022/03/06 00:28:51;;;;;;;;;;;;;;;;;;1030992;28;878;-37
2022/03/06 00:29:21;;;;;;;;;;;;;;;;;;1031420;28;898;-38
2022/03/06 00:29:52;;;;;;;;;;;;;;;;;;1031372;28;819;-38
2022/03/06 00:30:22;;;;;;;;;;;;;;;;;;1031520;28;646;-37
2022/03/06 00:30:52;;;;;;;;;;;;;;;;;;1031256;28;913;-38
2022/03/06 00:31:23;;;;;;;;;;;;;;;;;;1031502;28;863;-34
2022/03/06 00:31:53;;;;;;;;;;;;;;;;;;1031371;28;930;-36
2022/03/06 00:32:23;;;;;;;;;;;;;;;;;;1031303;28;954;-38
2022/03/06 00:32:54;;;;;;;;;;;;;;;;;;1030827;28;859;-36
2022/03/06 00:33:24;;;;;;;;;;;;;;;;;;1031492;28;890;-38
2022/03/06 00:33:55;;;;;;;;;;;;;;;;;;1031329;28;788;-39
2022/03/06 00:34:26;;;;;;;;;;;;;;;;;;1031367;28;857;-38
2022/03/06 00:34:56;;;;;;;;;;;;;;;;;;1031273;28;986;-38
2022/03/06 00:35:28;;;;;;;;;;;;;;;;;;1031527;28;891;-37
2022/03/06 00:35:58;;;;;;;;;;;;;;;;;;1031321;28;1902;-38
2022/03/06 00:36:29;;;;;;;;;;;;;;;;;;1031467;28;910;-37
2022/03/06 00:37:00;;;;;;;;;;;;;;;;;;1031371;28;949;-39
2022/03/06 00:37:30;;;;;;;;;;;;;;;;;;1031391;28;815;-38
2022/03/06 00:38:00;;;;;;;;;;;;;;;;;;1031448;28;976;-37
2022/03/06 00:38:31;;;;;;;;;;;;;;;;;;1031337;28;946;-38
2022/03/06 00:39:02;;;;;;;;;;;;;;;;;;1031388;28;828;-36
2022/03/06 00:39:33;;;;;;;;;;;;;;;;;;1031416;28;823;-38
2022/03/06 00:40:04;;;;;;;;;;;;;;;;;;1030868;28;906;-37
2022/03/06 00:40:34;;;;;;;;;;;;;;;;;;1030619;28;825;-36
2022/03/06 00:41:05;;;;;;;;;;;;;;;;;;1031418;28;951;-38
2022/03/06 00:41:35;;;;;;;;;;;;;;;;;;1031223;28;922;-38
2022/03/06 00:42:06;;;;;;;;;;;;;;;;;;1031494;28;898;-38
2022/03/06 00:42:37;;;;;;;;;;;;;;;;;;1031418;28;945;-38
2022/03/06 00:43:07;;;;;;;;;;;;;;;;;;1031300;28;998;-38
2022/03/06 00:43:37;;;;;;;;;;;;;;;;;;1031498;28;989;-38
2022/03/06 00:44:08;;;;;;;;;;;;;;;;;;1031115;28;1037;-37
2022/03/06 00:44:38;;;;;;;;;;;;;;;;;;1031342;28;803;-38
2022/03/06 00:45:08;;;;;;;;;;;;;;;;;;1031495;28;867;-35
2022/03/06 00:45:41;;;;;;;;;;;;;;;;;;1031199;28;1211;-38
2022/03/06 00:46:11;;;;;;;;;;;;;;;;;;1031361;28;994;-38
2022/03/06 00:46:42;;;;;;;;;;;;;;;;;;1027071;28;1051;-37
2022/03/06 00:47:13;;;;;;;;;;;;;;;;;;1027003;28;815;-37
2022/03/06 00:47:43;;;;;;;;;;;;;;;;;;1026462;28;1014;-38
2022/03/06 00:48:14;;;;;;;;;;;;;;;;;;1026971;28;931;-38
2022/03/06 00:48:44;;;;;;;;;;;;;;;;;;1031453;28;1045;-38
2022/03/06 00:49:14;;;;;;;;;;;;;;;;;;1031260;28;922;-37
2022/03/06 00:49:45;;;;;;;;;;;;;;;;;;1031424;28;815;-36
2022/03/06 00:50:15;;;;;;;;;;;;;;;;;;1031249;28;982;-38
2022/03/06 00:50:45;;;;;;;;;;;;;;;;;;1031367;28;891;-37
2022/03/06 00:51:16;;;;;;;;;;;;;;;;;;1031148;28;962;-37
2022/03/06 00:51:46;;;;;;;;;;;;;;;;;;1031508;28;1065;-38
2022/03/06 00:52:16;;;;;;;;;;;;;;;;;;1031257;28;835;-38
2022/03/06 00:52:47;;;;;;;;;;;;;;;;;;1031386;28;887;-37
2022/03/06 00:53:17;;;;;;;;;;;;;;;;;;1031224;28;984;-38
2022/03/06 00:53:48;;;;;;;;;;;;;;;;;;1031453;28;906;-38
2022/03/06 00:54:19;;;;;;;;;;;;;;;;;;1031296;28;1162;-37
2022/03/06 00:54:50;;;;;;;;;;;;;;;;;;1031452;28;918;-37
2022/03/06 00:55:20;;;;;;;;;;;;;;;;;;1030666;28;807;-37
2022/03/06 00:55:51;;;;;;;;;;;;;;;;;;1031285;28;1910;-38
2022/03/06 00:56:21;;;;;;;;;;;;;;;;;;1031262;28;918;-38
2022/03/06 00:56:51;;;;;;;;;;;;;;;;;;1031433;28;820;-36
2022/03/06 00:57:22;;;;;;;;;;;;;;;;;;1031298;28;874;-38
2022/03/06 00:57:52;;;;;;;;;;;;;;;;;;1031324;28;815;-37
2022/03/06 00:58:22;;;;;;;;;;;;;;;;;;1031481;28;811;-38
2022/03/06 00:58:53;;;;;;;;;;;;;;;;;;1031271;28;855;-37
2022/03/06 00:59:23;;;;;;;;;;;;;;;;;;1031354;28;827;-38
2022/03/06 00:59:54;;;;;;;;;;;;;;;;;;1031135;28;934;-38
2022/03/06 01:00:24;;;;;;;;;;;;;;;;;;1031395;28;870;-37
2022/03/06 01:00:54;;;;;;;;;;;;;;;;;;1031381;28;882;-38
2022/03/06 01:01:25;;;;;;;;;;;;;;;;;;1031123;28;824;-37
2022/03/06 01:01:55;;;;;;;;;;;;;;;;;;1031422;28;997;-38
2022/03/06 01:02:26;;;;;;;;;;;;;;;;;;1031014;28;1017;-37
2022/03/06 01:02:57;;;;;;;;;;;;;;;;;;1031099;28;898;-36
2022/03/06 01:03:27;;;;;;;;;;;;;;;;;;1031512;28;784;-38
2022/03/06 01:03:57;;;;;;;;;;;;;;;;;;1031263;28;772;-37
2022/03/06 01:04:28;;;;;;;;;;;;;;;;;;1031213;28;1177;-37
2022/03/06 01:04:58;;;;;;;;;;;;;;;;;;1031418;28;882;-36
2022/03/06 01:05:28;;;;;;;;;;;;;;;;;;1031371;28;932;-38
2022/03/06 01:05:59;;;;;;;;;;;;;;;;;;1031317;28;799;-38
2022/03/06 01:06:29;;;;;;;;;;;;;;;;;;1031416;28;961;-36
2022/03/06 01:06:59;;;;;;;;;;;;;;;;;;1031370;28;815;-36
2022/03/06 01:07:31;;;;;;;;;;;;;;;;;;1031149;28;855;-37
2022/03/06 01:08:02;;;;;;;;;;;;;;;;;;1031350;28;883;-37
2022/03/06 01:08:33;;;;;;;;;;;;;;;;;;1031459;28;842;-38
2022/03/06 01:09:04;;;;;;;;;;;;;;;;;;1031255;28;898;-38
2022/03/06 01:09:34;;;;;;;;;;;;;;;;;;1031358;28;862;-38
2022/03/06 01:10:05;;;;;;;;;;;;;;;;;;1030641;28;963;-37
2022/03/06 01:10:37;;;;;;;;;;;;;;;;;;1031232;28;986;-37
2022/03/06 01:11:07;;;;;;;;;;;;;;;;;;1031399;28;973;-37
2022/03/06 01:11:38;;;;;;;;;;;;;;;;;;1031229;28;805;-37
2022/03/06 01:12:08;;;;;;;;;;;;;;;;;;1031233;28;883;-37
2022/03/06 01:12:39;;;;;;;;;;;;;;;;;;1031221;28;891;-37
2022/03/06 01:13:09;;;;;;;;;;;;;;;;;;1031355;28;784;-36
2022/03/06 01:13:40;;;;;;;;;;;;;;;;;;1027153;28;862;-37
2022/03/06 01:14:11;;;;;;;;;;;;;;;;;;1026964;28;810;-37
2022/03/06 01:14:41;;;;;;;;;;;;;;;;;;1022963;29;935;-38
2022/03/06 01:15:12;;;;;;;;;;;;;;;;;;1023170;28;863;-38
2022/03/06 01:15:42;;;;;;;;;;;;;;;;;;1027003;28;1975;-36
2022/03/06 01:16:13;;;;;;;;;;;;;;;;;;1026872;28;943;-38
2022/03/06 01:16:43;;;;;;;;;;;;;;;;;;1031433;28;911;-38
2022/03/06 01:17:13;;;;;;;;;;;;;;;;;;1030801;28;823;-37
2022/03/06 01:17:44;;;;;;;;;;;;;;;;;;1031158;28;803;-37
2022/03/06 01:18:14;;;;;;;;;;;;;;;;;;1031220;28;855;-35
2022/03/06 01:18:44;;;;;;;;;;;;;;;;;;1031423;28;795;-37
2022/03/06 01:19:15;;;;;;;;;;;;;;;;;;1031288;28;875;-37
2022/03/06 01:19:45;;;;;;;;;;;;;;;;;;1031362;28;836;-37
2022/03/06 01:20:17;;;;;;;;;;;;;;;;;;1031220;28;921;-38
2022/03/06 01:20:48;;;;;;;;;;;;;;;;;;1031215;28;1037;-37
2022/03/06 01:21:18;;;;;;;;;;;;;;;;;;1031236;28;949;-37
2022/03/06 01:21:48;;;;;;;;;;;;;;;;;;1031409;28;938;-37
2022/03/06 01:22:19;;;;;;;;;;;;;;;;;;1031145;28;887;-36
2022/03/06 01:22:49;;;;;;;;;;;;;;;;;;1031373;28;851;-37
2022/03/06 01:23:19;;;;;;;;;;;;;;;;;;1031324;28;902;-37
2022/03/06 01:23:50;;;;;;;;;;;;;;;;;;1031263;28;938;-39
2022/03/06 01:24:21;;;;;;;;;;;;;;;;;;1031378;28;941;-38
2022/03/06 01:24:51;;;;;;;;;;;;;;;;;;1030581;28;946;-37
2022/03/06 01:25:21;;;;;;;;;;;;;;;;;;1034144;28;1130;-36
2022/03/06 01:25:52;;;;;;;;;;;;;;;;;;1035330;28;910;-38
2022/03/06 01:26:22;;;;;;;;;;;;;;;;;;1035383;28;879;-38
2022/03/06 01:26:52;;;;;;;;;;;;;;;;;;1035288;28;946;-37
2022/03/06 01:27:23;;;;;;;;;;;;;;;;;;1035357;28;860;-37
2022/03/06 01:27:53;;;;;;;;;;;;;;;;;;1035196;28;934;-37
2022/03/06 01:28:23;;;;;;;;;;;;;;;;;;1035420;28;894;-35
2022/03/06 01:28:54;;;;;;;;;;;;;;;;;;1035259;28;934;-37
2022/03/06 01:29:24;;;;;;;;;;;;;;;;;;1035382;28;914;-38
2022/03/06 01:29:54;;;;;;;;;;;;;;;;;;1035452;28;914;-37
2022/03/06 01:30:25;;;;;;;;;;;;;;;;;;1035326;28;997;-37
2022/03/06 01:30:55;;;;;;;;;;;;;;;;;;1035363;28;799;-38
2022/03/06 01:31:25;;;;;;;;;;;;;;;;;;1035317;28;978;-38
2022/03/06 01:31:56;;;;;;;;;;;;;;;;;;1035206;28;938;-36
2022/03/06 01:32:26;;;;;;;;;;;;;;;;;;1034783;28;938;-37
2022/03/06 01:32:57;;;;;;;;;;;;;;;;;;1035258;28;899;-38
2022/03/06 01:33:27;;;;;;;;;;;;;;;;;;1035248;28;1856;-38
2022/03/06 01:33:58;;;;;;;;;;;;;;;;;;1030907;28;919;-37
2022/03/06 01:34:28;;;;;;;;;;;;;;;;;;1030909;28;863;-37
2022/03/06 01:34:59;;;;;;;;;;;;;;;;;;1030962;28;965;-38
2022/03/06 01:35:29;;;;;;;;;;;;;;;;;;1031096;28;858;-37
2022/03/06 01:36:00;;;;;;;;;;;;;;;;;;1035235;28;1973;-37
2022/03/06 01:36:30;;;;;;;;;;;;;;;;;;1035491;28;811;-36
2022/03/06 01:37:01;;;;;;;;;;;;;;;;;;1035367;28;918;-38
2022/03/06 01:37:32;;;;;;;;;;;;;;;;;;1035137;28;827;-37
2022/03/06 01:38:02;;;;;;;;;;;;;;;;;;1035499;28;1776;-37
2022/03/06 01:38:33;;;;;;;;;;;;;;;;;;1035088;28;835;-38
2022/03/06 01:39:03;;;;;;;;;;;;;;;;;;1035487;28;1016;-38
2022/03/06 01:39:33;;;;;;;;;;;;;;;;;;1034568;28;816;-37
2022/03/06 01:40:04;;;;;;;;;;;;;;;;;;1035428;28;839;-38
2022/03/06 01:40:35;;;;;;;;;;;;;;;;;;1035286;28;899;-38
2022/03/06 01:41:05;;;;;;;;;;;;;;;;;;1035432;28;985;-36
2022/03/06 01:41:36;;;;;;;;;;;;;;;;;;1035163;28;1496;-36
2022/03/06 01:42:06;;;;;;;;;;;;;;;;;;1035473;28;891;-36
2022/03/06 01:42:43;;;;;;;;;;;;;;;;;;1035325;28;831;-36
2022/03/06 01:43:13;;;;;;;;;;;;;;;;;;1035385;28;852;-35
2022/03/06 01:43:44;;;;;;;;;;;;;;;;;;1035232;28;879;-37
2022/03/06 01:44:14;;;;;;;;;;;;;;;;;;1035425;28;946;-36
2022/03/06 01:44:45;;;;;;;;;;;;;;;;;;1030786;28;903;-38
2022/03/06 01:45:16;;;;;;;;;;;;;;;;;;1031047;28;970;-38
2022/03/06 01:45:47;;;;;;;;;;;;;;;;;;1030704;28;1260;-36
2022/03/06 01:46:17;;;;;;;;;;;;;;;;;;1031029;28;895;-38
2022/03/06 01:46:48;;;;;;;;;;;;;;;;;;1035179;28;977;-37
2022/03/06 01:47:30;;;;;;;;;;;;;;;;;;1035104;28;874;-37
2022/03/06 01:48:03;;;;;;;;;;;;;;;;;;1035318;28;887;-37
2022/03/06 01:48:33;;;;;;;;;;;;;;;;;;1035375;28;851;-37
2022/03/06 01:49:04;;;;;;;;;;;;;;;;;;1035117;28;791;-40
2022/03/06 01:49:34;;;;;;;;;;;;;;;;;;1035315;28;934;-38
2022/03/06 01:50:06;;;;;;;;;;;;;;;;;;1035365;28;862;-38
2022/03/06 01:50:37;;;;;;;;;;;;;;;;;;1035290;28;994;-38
2022/03/06 01:51:08;;;;;;;;;;;;;;;;;;1031041;28;938;-38
2022/03/06 01:51:38;;;;;;;;;;;;;;;;;;1031384;28;921;-36
2022/03/06 01:52:08;;;;;;;;;;;;;;;;;;1031740;28;1029;-37
2022/03/06 01:52:38;;;;;;;;;;;;;;;;;;1031640;28;870;-38
2022/03/06 01:53:10;;;;;;;;;;;;;;;;;;1036006;28;914;-37
2022/03/06 01:53:40;;;;;;;;;;;;;;;;;;1036173;28;964;-36
2022/03/06 01:54:11;;;;;;;;;;;;;;;;;;1035431;28;1268;-38
2022/03/06 01:54:41;;;;;;;;;;;;;;;;;;1035809;28;835;-37
2022/03/06 01:55:12;;;;;;;;;;;;;;;;;;1036062;28;850;-37
2022/03/06 01:55:43;;;;;;;;;;;;;;;;;;1035933;28;1906;-39
2022/03/06 01:56:13;;;;;;;;;;;;;;;;;;1036059;28;834;-38
2022/03/06 01:56:44;;;;;;;;;;;;;;;;;;1036087;28;942;-38
2022/03/06 01:57:14;;;;;;;;;;;;;;;;;;1031656;28;1320;-37
2022/03/06 01:57:46;;;;;;;;;;;;;;;;;;1031597;28;838;-37
2022/03/06 01:58:16;;;;;;;;;;;;;;;;;;1031612;28;895;-38
2022/03/06 01:58:47;;;;;;;;;;;;;;;;;;1031830;28;949;-37
2022/03/06 01:59:18;;;;;;;;;;;;;;;;;;1035975;28;945;-37
2022/03/06 01:59:48;;;;;;;;;;;;;;;;;;1035989;28;1169;-37
2022/03/06 02:00:20;;;;;;;;;;;;;;;;;;1036165;28;1000;-37
2022/03/06 02:00:50;;;;;;;;;;;;;;;;;;1035985;28;982;-37
2022/03/06 02:01:21;;;;;;;;;;;;;;;;;;1035904;28;973;-37
2022/03/06 02:01:51;;;;;;;;;;;;;;;;;;1035496;28;1391;-37
2022/03/06 02:02:21;;;;;;;;;;;;;;;;;;1036009;28;930;-38
2022/03/06 02:02:52;;;;;;;;;;;;;;;;;;1035995;28;792;-38
2022/03/06 02:03:23;;;;;;;;;;;;;;;;;;1036144;28;964;-38
2022/03/06 02:03:53;;;;;;;;;;;;;;;;;;1036039;28;870;-39
2022/03/06 02:04:23;;;;;;;;;;;;;;;;;;1036131;28;972;-38
2022/03/06 02:04:54;;;;;;;;;;;;;;;;;;1033013;28;1130;-37
2022/03/06 02:05:24;;;;;;;;;;;;;;;;;;1031943;28;867;-38
2022/03/06 02:05:55;;;;;;;;;;;;;;;;;;1032060;28;938;-37
2022/03/06 02:06:26;;;;;;;;;;;;;;;;;;1031910;28;953;-38
2022/03/06 02:06:56;;;;;;;;;;;;;;;;;;1031944;28;1386;-36
2022/03/06 02:07:27;;;;;;;;;;;;;;;;;;1031991;28;993;-38
2022/03/06 02:07:57;;;;;;;;;;;;;;;;;;1031880;28;851;-37
2022/03/06 02:08:28;;;;;;;;;;;;;;;;;;1031997;28;894;-37
2022/03/06 02:08:58;;;;;;;;;;;;;;;;;;1031683;28;937;-38
2022/03/06 02:09:28;;;;;;;;;;;;;;;;;;1031627;28;866;-37
2022/03/06 02:09:59;;;;;;;;;;;;;;;;;;1032048;28;930;-38
2022/03/06 02:10:29;;;;;;;;;;;;;;;;;;1031851;28;1014;-39
2022/03/06 02:11:00;;;;;;;;;;;;;;;;;;1031974;28;832;-37
2022/03/06 02:11:30;;;;;;;;;;;;;;;;;;1031871;28;949;-38
2022/03/06 02:12:50;;;;;;;;;;;;;;;;;;1031787;28;902;-37
2022/03/06 02:13:20;;;;;;;;;;;;;;;;;;1032058;28;1022;-38
2022/03/06 02:13:50;;;;;;;;;;;;;;;;;;1031968;28;929;-38
2022/03/06 02:14:21;;;;;;;;;;;;;;;;;;1031982;28;856;-38
2022/03/06 02:14:52;;;;;;;;;;;;;;;;;;1031918;28;807;-37
2022/03/06 02:15:22;;;;;;;;;;;;;;;;;;1031921;28;922;-38
2022/03/06 02:15:52;;;;;;;;;;;;;;;;;;1031812;28;1906;-37
2022/03/06 02:16:23;;;;;;;;;;;;;;;;;;1031790;28;848;-37
2022/03/06 02:16:53;;;;;;;;;;;;;;;;;;1031540;28;983;-36
2022/03/06 02:17:25;;;;;;;;;;;;;;;;;;1031914;28;946;-38
2022/03/06 02:17:55;;;;;;;;;;;;;;;;;;1031869;28;895;-38
2022/03/06 02:18:25;;;;;;;;;;;;;;;;;;1031875;28;894;-38
2022/03/06 02:18:56;;;;;;;;;;;;;;;;;;1032059;28;882;-38
2022/03/06 02:19:26;;;;;;;;;;;;;;;;;;1031824;28;799;-38
2022/03/06 02:19:58;;;;;;;;;;;;;;;;;;1032059;28;962;-38
2022/03/06 02:20:29;;;;;;;;;;;;;;;;;;1031934;28;903;-38
2022/03/06 02:21:06;;;;;;;;;;;;;;;;;;1031918;28;863;-37
2022/03/06 02:21:36;;;;;;;;;;;;;;;;;;1031817;28;1460;-38
2022/03/06 02:22:06;;;;;;;;;;;;;;;;;;1031864;28;887;-38
2022/03/06 02:22:37;;;;;;;;;;;;;;;;;;1031991;28;815;-38
2022/03/06 02:23:08;;;;;;;;;;;;;;;;;;1031837;28;986;-37
2022/03/06 02:23:39;;;;;;;;;;;;;;;;;;1031838;28;939;-37
2022/03/06 02:24:09;;;;;;;;;;;;;;;;;;1031278;28;981;-38
2022/03/06 02:24:39;;;;;;;;;;;;;;;;;;1031673;28;942;-39
2022/03/06 02:25:12;;;;;;;;;;;;;;;;;;1032741;28;1137;-37
2022/03/06 02:25:42;;;;;;;;;;;;;;;;;;1035593;28;926;-37
2022/03/06 02:26:13;;;;;;;;;;;;;;;;;;1035633;28;892;-38
2022/03/06 02:26:43;;;;;;;;;;;;;;;;;;1035964;28;811;-38
2022/03/06 02:27:14;;;;;;;;;;;;;;;;;;1035837;28;1613;-38
2022/03/06 02:27:44;;;;;;;;;;;;;;;;;;1035732;28;922;-38
2022/03/06 02:28:15;;;;;;;;;;;;;;;;;;1036055;28;1037;-37
2022/03/06 02:28:45;;;;;;;;;;;;;;;;;;1035910;28;846;-38
2022/03/06 02:29:15;;;;;;;;;;;;;;;;;;1036046;28;823;-38
2022/03/06 02:29:46;;;;;;;;;;;;;;;;;;1035908;28;763;-38
2022/03/06 02:30:18;;;;;;;;;;;;;;;;;;1035962;28;921;-37
2022/03/06 02:30:48;;;;;;;;;;;;;;;;;;1035842;28;964;-36
2022/03/06 02:31:19;;;;;;;;;;;;;;;;;;1035337;28;867;-37
2022/03/06 02:31:49;;;;;;;;;;;;;;;;;;1035777;28;898;-38
2022/03/06 02:32:21;;;;;;;;;;;;;;;;;;1036098;28;897;-38
2022/03/06 02:32:52;;;;;;;;;;;;;;;;;;1035772;28;962;-38
2022/03/06 02:33:22;;;;;;;;;;;;;;;;;;1035982;28;1760;-36
2022/03/06 02:33:52;;;;;;;;;;;;;;;;;;1035805;28;1009;-37
2022/03/06 02:34:23;;;;;;;;;;;;;;;;;;1035960;28;931;-38
2022/03/06 02:34:53;;;;;;;;;;;;;;;;;;1035952;28;1013;-38
2022/03/06 02:35:24;;;;;;;;;;;;;;;;;;1035916;28;930;-38
2022/03/06 02:35:54;;;;;;;;;;;;;;;;;;1035748;28;1906;-38
2022/03/06 02:36:24;;;;;;;;;;;;;;;;;;1035979;28;847;-38
2022/03/06 02:36:59;;;;;;;;;;;;;;;;;;1035785;28;934;-38
2022/03/06 02:37:29;;;;;;;;;;;;;;;;;;1035841;28;823;-36
2022/03/06 02:38:00;;;;;;;;;;;;;;;;;;1035927;28;894;-38
2022/03/06 02:38:30;;;;;;;;;;;;;;;;;;1035776;28;799;-37
2022/03/06 02:39:01;;;;;;;;;;;;;;;;;;1035279;28;902;-39
2022/03/06 02:39:31;;;;;;;;;;;;;;;;;;1035708;28;851;-37
2022/03/06 02:40:03;;;;;;;;;;;;;;;;;;1035974;28;1409;-38
2022/03/06 02:40:38;;;;;;;;;;;;;;;;;;1035911;28;795;-36
2022/03/06 02:41:08;;;;;;;;;;;;;;;;;;1035782;28;1589;-37
2022/03/06 02:41:38;;;;;;;;;;;;;;;;;;1036027;28;886;-38
2022/03/06 02:42:10;;;;;;;;;;;;;;;;;;1035690;28;859;-36
2022/03/06 02:42:42;;;;;;;;;;;;;;;;;;1035924;28;819;-36
2022/03/06 02:43:14;;;;;;;;;;;;;;;;;;1035960;28;770;-37
2022/03/06 02:43:44;;;;;;;;;;;;;;;;;;1035818;28;938;-36
2022/03/06 02:44:15;;;;;;;;;;;;;;;;;;1035869;28;815;-37
2022/03/06 02:44:45;;;;;;;;;;;;;;;;;;1035763;28;807;-38
2022/03/06 02:45:15;;;;;;;;;;;;;;;;;;1035929;28;899;-38
2022/03/06 02:45:46;;;;;;;;;;;;;;;;;;1035658;28;1247;-37
2022/03/06 02:46:16;;;;;;;;;;;;;;;;;;1035229;28;1028;-38
2022/03/06 02:46:47;;;;;;;;;;;;;;;;;;1035695;28;807;-38
2022/03/06 02:47:18;;;;;;;;;;;;;;;;;;1035896;28;926;-35
2022/03/06 02:47:49;;;;;;;;;;;;;;;;;;1035694;28;919;-37
2022/03/06 02:48:20;;;;;;;;;;;;;;;;;;1035943;28;819;-35
2022/03/06 02:48:51;;;;;;;;;;;;;;;;;;1035568;28;848;-38
2022/03/06 02:49:21;;;;;;;;;;;;;;;;;;1035945;28;910;-38
2022/03/06 02:49:52;;;;;;;;;;;;;;;;;;1035682;28;1189;-37
2022/03/06 02:50:24;;;;;;;;;;;;;;;;;;1035808;28;1013;-38
2022/03/06 02:50:54;;;;;;;;;;;;;;;;;;1035830;28;819;-38
2022/03/06 02:51:24;;;;;;;;;;;;;;;;;;1035783;28;851;-34
2022/03/06 02:51:55;;;;;;;;;;;;;;;;;;1035943;28;859;-38
2022/03/06 02:52:25;;;;;;;;;;;;;;;;;;1035913;28;828;-37
2022/03/06 02:52:56;;;;;;;;;;;;;;;;;;1035808;28;826;-38
2022/03/06 02:53:26;;;;;;;;;;;;;;;;;;1035509;28;950;-38
2022/03/06 02:53:56;;;;;;;;;;;;;;;;;;1035618;28;875;-37
2022/03/06 02:54:27;;;;;;;;;;;;;;;;;;1035738;28;1399;-35
2022/03/06 02:54:57;;;;;;;;;;;;;;;;;;1035698;28;792;-37
2022/03/06 02:55:28;;;;;;;;;;;;;;;;;;1035688;28;966;-37
2022/03/06 02:55:58;;;;;;;;;;;;;;;;;;1035801;28;1910;-37
2022/03/06 02:56:28;;;;;;;;;;;;;;;;;;1035768;28;910;-37
2022/03/06 02:56:59;;;;;;;;;;;;;;;;;;1035724;28;889;-37
2022/03/06 02:57:29;;;;;;;;;;;;;;;;;;1035833;28;1049;-37
2022/03/06 02:57:59;;;;;;;;;;;;;;;;;;1035782;28;855;-35
2022/03/06 02:58:30;;;;;;;;;;;;;;;;;;1035904;28;902;-36
2022/03/06 02:59:00;;;;;;;;;;;;;;;;;;1035788;28;855;-36
2022/03/06 02:59:30;;;;;;;;;;;;;;;;;;1035829;28;875;-36
2022/03/06 03:00:01;;;;;;;;;;;;;;;;;;1035768;28;859;-38
2022/03/06 03:00:31;;;;;;;;;;;;;;;;;;1035758;28;950;-37
2022/03/06 03:01:02;;;;;;;;;;;;;;;;;;1035088;28;803;-36
2022/03/06 03:01:38;;;;;;;;;;;;;;;;;;1035883;28;985;-37
2022/03/06 03:02:08;;;;;;;;;;;;;;;;;;1035575;28;894;-36
2022/03/06 03:02:39;;;;;;;;;;;;;;;;;;1036005;28;835;-36
2022/03/06 03:03:09;;;;;;;;;;;;;;;;;;1035035;28;812;-37
2022/03/06 03:03:40;;;;;;;;;;;;;;;;;;1035813;28;949;-37
2022/03/06 03:04:11;;;;;;;;;;;;;;;;;;1035720;28;776;-38
2022/03/06 03:04:42;;;;;;;;;;;;;;;;;;1034541;28;1079;-37
2022/03/06 03:05:12;;;;;;;;;;;;;;;;;;1031678;28;804;-36
2022/03/06 03:05:43;;;;;;;;;;;;;;;;;;1031783;28;1025;-37
2022/03/06 03:06:13;;;;;;;;;;;;;;;;;;1031736;28;875;-38
2022/03/06 03:06:45;;;;;;;;;;;;;;;;;;1031871;28;874;-37
2022/03/06 03:07:16;;;;;;;;;;;;;;;;;;1031589;28;1109;-37
2022/03/06 03:07:48;;;;;;;;;;;;;;;;;;1031670;28;887;-38
2022/03/06 03:08:18;;;;;;;;;;;;;;;;;;1031104;28;986;-37
2022/03/06 03:08:49;;;;;;;;;;;;;;;;;;1031837;28;911;-35
2022/03/06 03:09:19;;;;;;;;;;;;;;;;;;1031710;28;875;-38
2022/03/06 03:09:50;;;;;;;;;;;;;;;;;;1031677;28;855;-37
2022/03/06 03:10:25;;;;;;;;;;;;;;;;;;1031798;28;934;-38
2022/03/06 03:10:55;;;;;;;;;;;;;;;;;;1031879;28;802;-37
2022/03/06 03:11:26;;;;;;;;;;;;;;;;;;1031470;28;1009;-38
2022/03/06 03:11:56;;;;;;;;;;;;;;;;;;1031713;28;989;-37
2022/03/06 03:12:26;;;;;;;;;;;;;;;;;;1031561;28;886;-38
2022/03/06 03:12:57;;;;;;;;;;;;;;;;;;1031870;28;879;-38
2022/03/06 03:13:27;;;;;;;;;;;;;;;;;;1031653;28;796;-37
2022/03/06 03:13:58;;;;;;;;;;;;;;;;;;1031667;28;945;-38
2022/03/06 03:14:32;;;;;;;;;;;;;;;;;;1031712;28;1138;-38
2022/03/06 03:15:03;;;;;;;;;;;;;;;;;;1031769;28;843;-37
2022/03/06 03:15:34;;;;;;;;;;;;;;;;;;1031530;28;1013;-39
2022/03/06 03:16:05;;;;;;;;;;;;;;;;;;1031268;28;1988;-35
2022/03/06 03:16:35;;;;;;;;;;;;;;;;;;1031659;28;1851;-36
2022/03/06 03:17:06;;;;;;;;;;;;;;;;;;1031740;28;847;-38
2022/03/06 03:17:36;;;;;;;;;;;;;;;;;;1031499;28;1017;-38
2022/03/06 03:18:06;;;;;;;;;;;;;;;;;;1031547;28;764;-38
2022/03/06 03:18:37;;;;;;;;;;;;;;;;;;1031797;28;895;-38
2022/03/06 03:19:07;;;;;;;;;;;;;;;;;;1031558;28;859;-38
2022/03/06 03:19:38;;;;;;;;;;;;;;;;;;1031723;28;891;-36
2022/03/06 03:20:08;;;;;;;;;;;;;;;;;;1031608;28;894;-36
2022/03/06 03:20:39;;;;;;;;;;;;;;;;;;1031724;28;954;-35
2022/03/06 03:21:09;;;;;;;;;;;;;;;;;;1031697;28;879;-37
2022/03/06 03:21:39;;;;;;;;;;;;;;;;;;1031788;28;863;-37
2022/03/06 03:22:10;;;;;;;;;;;;;;;;;;1031613;28;847;-38
2022/03/06 03:22:41;;;;;;;;;;;;;;;;;;1031782;28;816;-38
2022/03/06 03:23:11;;;;;;;;;;;;;;;;;;1030956;28;871;-36
2022/03/06 03:23:41;;;;;;;;;;;;;;;;;;1031821;28;807;-38
2022/03/06 03:24:12;;;;;;;;;;;;;;;;;;1031551;28;907;-37
2022/03/06 03:24:42;;;;;;;;;;;;;;;;;;1031705;28;815;-37
2022/03/06 03:25:13;;;;;;;;;;;;;;;;;;1033442;28;1186;-38
2022/03/06 03:25:43;;;;;;;;;;;;;;;;;;1035524;28;741;-37
2022/03/06 03:26:13;;;;;;;;;;;;;;;;;;1035748;28;978;-35
2022/03/06 03:26:43;;;;;;;;;;;;;;;;;;1035621;28;946;-38
2022/03/06 03:27:14;;;;;;;;;;;;;;;;;;1035622;28;945;-37
2022/03/06 03:27:44;;;;;;;;;;;;;;;;;;1035575;28;951;-36
2022/03/06 03:28:15;;;;;;;;;;;;;;;;;;1035759;28;839;-38
2022/03/06 03:28:45;;;;;;;;;;;;;;;;;;1035629;28;958;-38
2022/03/06 03:29:15;;;;;;;;;;;;;;;;;;1035810;28;891;-37
2022/03/06 03:29:46;;;;;;;;;;;;;;;;;;1035514;28;966;-36
2022/03/06 03:30:16;;;;;;;;;;;;;;;;;;1035857;28;839;-37
2022/03/06 03:30:47;;;;;;;;;;;;;;;;;;1034846;28;962;-37
2022/03/06 03:31:17;;;;;;;;;;;;;;;;;;1035810;28;831;-37
2022/03/06 03:31:48;;;;;;;;;;;;;;;;;;1035799;28;850;-37
2022/03/06 03:32:18;;;;;;;;;;;;;;;;;;1035676;28;939;-37
2022/03/06 03:32:48;;;;;;;;;;;;;;;;;;1035595;28;886;-38
2022/03/06 03:33:19;;;;;;;;;;;;;;;;;;1035517;28;982;-37
2022/03/06 03:33:49;;;;;;;;;;;;;;;;;;1035613;28;938;-38
2022/03/06 03:34:19;;;;;;;;;;;;;;;;;;1035842;28;878;-36
2022/03/06 03:34:50;;;;;;;;;;;;;;;;;;1035597;28;843;-37
2022/03/06 03:35:20;;;;;;;;;;;;;;;;;;1031372;28;1033;-37
2022/03/06 03:35:51;;;;;;;;;;;;;;;;;;1031224;28;1973;-38
2022/03/06 03:36:21;;;;;;;;;;;;;;;;;;1031336;28;799;-37
2022/03/06 03:36:51;;;;;;;;;;;;;;;;;;1031333;28;960;-37